sensor_id;sensor_type;location;lat;lon;timestamp;P1;durP1;ratioP1;P2;durP2;ratioP2
7665;SDS011;3875;46.562;4.898;2022-10-16T00:02:01;3.70;;;2.30;;
7665;SDS011;3875;46.562;4.898;2022-10-16T00:04:26;4.20;;;2.37;;
7665;SDS011;3875;46.562;4.898;2022-10-16T00:06:52;3.80;;;2.17;;
7665;SDS011;3875;46.562;4.898;2022-10-16T00:09:18;4.73;;;2.73;;
7665;SDS011;3875;46.562;4.898;2022-10-16T00:11:43;4.80;;;2.30;;
7665;SDS011;3875;46.562;4.898;2022-10-16T00:14:11;6.00;;;2.30;;
7665;SDS011;3875;46.562;4.898;2022-10-16T00:16:39;3.83;;;2.10;;
7665;SDS011;3875;46.562;4.898;2022-10-16T00:19:05;3.67;;;2.30;;
7665;SDS011;3875;46.562;4.898;2022-10-16T00:21:32;4.50;;;2.73;;
7665;SDS011;3875;46.562;4.898;2022-10-16T00:23:59;6.57;;;2.23;;
7665;SDS011;3875;46.562;4.898;2022-10-16T00:26:27;3.37;;;2.50;;
7665;SDS011;3875;46.562;4.898;2022-10-16T00:28:54;3.87;;;2.37;;
7665;SDS011;3875;46.562;4.898;2022-10-16T00:31:20;2.80;;;2.30;;
7665;SDS011;3875;46.562;4.898;2022-10-16T00:33:46;6.30;;;2.30;;
7665;SDS011;3875;46.562;4.898;2022-10-16T00:36:13;4.03;;;2.13;;
7665;SDS011;3875;46.562;4.898;2022-10-16T00:38:41;4.57;;;2.20;;
7665;SDS011;3875;46.562;4.898;2022-10-16T00:41:09;4.53;;;2.17;;
7665;SDS011;3875;46.562;4.898;2022-10-16T00:46:13;5.10;;;2.30;;
7665;SDS011;3875;46.562;4.898;2022-10-16T00:49:00;6.37;;;2.43;;
7665;SDS011;3875;46.562;4.898;2022-10-16T00:51:39;4.43;;;2.00;;
7665;SDS011;3875;46.562;4.898;2022-10-16T00:54:16;3.30;;;1.90;;
7665;SDS011;3875;46.562;4.898;2022-10-16T00:56:46;4.57;;;1.90;;
7665;SDS011;3875;46.562;4.898;2022-10-16T00:59:16;4.00;;;2.43;;
7665;SDS011;3875;46.562;4.898;2022-10-16T01:01:44;3.83;;;1.90;;
7665;SDS011;3875;46.562;4.898;2022-10-16T01:04:10;3.37;;;1.93;;
7665;SDS011;3875;46.562;4.898;2022-10-16T01:06:51;2.73;;;1.80;;
7665;SDS011;3875;46.562;4.898;2022-10-16T01:09:47;3.13;;;1.90;;
7665;SDS011;3875;46.562;4.898;2022-10-16T01:12:10;3.03;;;1.83;;
7665;SDS011;3875;46.562;4.898;2022-10-16T01:14:54;3.13;;;2.10;;
7665;SDS011;3875;46.562;4.898;2022-10-16T01:22:33;7.20;;;2.20;;
7665;SDS011;3875;46.562;4.898;2022-10-16T01:25:18;7.63;;;2.00;;
7665;SDS011;3875;46.562;4.898;2022-10-16T01:27:54;2.40;;;2.00;;
7665;SDS011;3875;46.562;4.898;2022-10-16T01:30:26;5.30;;;2.20;;
7665;SDS011;3875;46.562;4.898;2022-10-16T01:32:57;5.13;;;2.17;;
7665;SDS011;3875;46.562;4.898;2022-10-16T01:35:32;4.43;;;1.90;;
7665;SDS011;3875;46.562;4.898;2022-10-16T01:38:19;6.47;;;2.00;;
7665;SDS011;3875;46.562;4.898;2022-10-16T01:40:55;2.63;;;1.93;;
7665;SDS011;3875;46.562;4.898;2022-10-16T01:44:01;4.20;;;1.90;;
7665;SDS011;3875;46.562;4.898;2022-10-16T01:46:21;2.40;;;1.90;;
7665;SDS011;3875;46.562;4.898;2022-10-16T01:48:48;2.30;;;1.93;;
7665;SDS011;3875;46.562;4.898;2022-10-16T01:51:16;4.77;;;1.90;;
7665;SDS011;3875;46.562;4.898;2022-10-16T01:53:46;3.90;;;1.90;;
7665;SDS011;3875;46.562;4.898;2022-10-16T01:56:18;4.40;;;1.80;;
7665;SDS011;3875;46.562;4.898;2022-10-16T01:58:49;7.17;;;2.33;;
7665;SDS011;3875;46.562;4.898;2022-10-16T02:01:23;5.73;;;2.03;;
7665;SDS011;3875;46.562;4.898;2022-10-16T02:03:52;3.27;;;1.90;;
7665;SDS011;3875;46.562;4.898;2022-10-16T02:06:22;2.00;;;1.80;;
7665;SDS011;3875;46.562;4.898;2022-10-16T02:08:48;7.20;;;2.03;;
7665;SDS011;3875;46.562;4.898;2022-10-16T02:11:14;4.97;;;2.10;;
7665;SDS011;3875;46.562;4.898;2022-10-16T02:16:31;4.40;;;2.17;;
7665;SDS011;3875;46.562;4.898;2022-10-16T02:19:01;5.53;;;2.33;;
7665;SDS011;3875;46.562;4.898;2022-10-16T02:21:28;4.53;;;2.40;;
7665;SDS011;3875;46.562;4.898;2022-10-16T02:24:00;3.63;;;2.10;;
7665;SDS011;3875;46.562;4.898;2022-10-16T02:26:41;2.23;;;2.03;;
7665;SDS011;3875;46.562;4.898;2022-10-16T02:29:12;4.77;;;1.93;;
7665;SDS011;3875;46.562;4.898;2022-10-16T02:31:43;3.10;;;2.20;;
7665;SDS011;3875;46.562;4.898;2022-10-16T02:34:13;3.13;;;2.53;;
7665;SDS011;3875;46.562;4.898;2022-10-16T02:36:41;4.43;;;2.60;;
7665;SDS011;3875;46.562;4.898;2022-10-16T02:39:07;2.80;;;2.30;;
7665;SDS011;3875;46.562;4.898;2022-10-16T02:41:34;3.93;;;2.33;;
7665;SDS011;3875;46.562;4.898;2022-10-16T02:44:00;2.97;;;2.30;;
7665;SDS011;3875;46.562;4.898;2022-10-16T02:46:26;5.83;;;2.20;;
7665;SDS011;3875;46.562;4.898;2022-10-16T02:48:51;3.03;;;2.50;;
7665;SDS011;3875;46.562;4.898;2022-10-16T02:51:17;2.57;;;2.20;;
7665;SDS011;3875;46.562;4.898;2022-10-16T02:53:42;4.53;;;2.03;;
7665;SDS011;3875;46.562;4.898;2022-10-16T02:56:08;5.33;;;2.30;;
7665;SDS011;3875;46.562;4.898;2022-10-16T02:58:34;3.47;;;2.43;;
7665;SDS011;3875;46.562;4.898;2022-10-16T03:00:59;3.77;;;2.30;;
7665;SDS011;3875;46.562;4.898;2022-10-16T03:03:25;3.90;;;2.43;;
7665;SDS011;3875;46.562;4.898;2022-10-16T03:05:51;2.60;;;2.30;;
7665;SDS011;3875;46.562;4.898;2022-10-16T03:08:16;3.03;;;2.10;;
7665;SDS011;3875;46.562;4.898;2022-10-16T03:10:42;5.23;;;2.60;;
7665;SDS011;3875;46.562;4.898;2022-10-16T03:13:08;3.77;;;2.50;;
7665;SDS011;3875;46.562;4.898;2022-10-16T03:15:33;5.23;;;2.97;;
7665;SDS011;3875;46.562;4.898;2022-10-16T03:17:59;2.57;;;2.20;;
7665;SDS011;3875;46.562;4.898;2022-10-16T03:20:25;4.20;;;2.73;;
7665;SDS011;3875;46.562;4.898;2022-10-16T03:22:51;2.73;;;2.53;;
7665;SDS011;3875;46.562;4.898;2022-10-16T03:25:17;2.83;;;2.50;;
7665;SDS011;3875;46.562;4.898;2022-10-16T03:27:42;6.90;;;2.30;;
7665;SDS011;3875;46.562;4.898;2022-10-16T03:30:08;4.73;;;2.63;;
7665;SDS011;3875;46.562;4.898;2022-10-16T03:32:34;4.30;;;2.53;;
7665;SDS011;3875;46.562;4.898;2022-10-16T03:35:00;3.23;;;2.20;;
7665;SDS011;3875;46.562;4.898;2022-10-16T03:37:25;2.23;;;2.03;;
7665;SDS011;3875;46.562;4.898;2022-10-16T03:39:51;3.90;;;2.70;;
7665;SDS011;3875;46.562;4.898;2022-10-16T03:42:17;2.90;;;2.23;;
7665;SDS011;3875;46.562;4.898;2022-10-16T03:44:43;2.53;;;2.30;;
7665;SDS011;3875;46.562;4.898;2022-10-16T03:47:09;3.40;;;2.40;;
7665;SDS011;3875;46.562;4.898;2022-10-16T03:49:34;2.80;;;2.20;;
7665;SDS011;3875;46.562;4.898;2022-10-16T03:52:00;3.13;;;2.47;;
7665;SDS011;3875;46.562;4.898;2022-10-16T03:54:26;4.83;;;2.93;;
7665;SDS011;3875;46.562;4.898;2022-10-16T03:56:51;3.50;;;2.43;;
7665;SDS011;3875;46.562;4.898;2022-10-16T03:59:17;3.40;;;2.37;;
7665;SDS011;3875;46.562;4.898;2022-10-16T04:01:43;5.43;;;2.90;;
7665;SDS011;3875;46.562;4.898;2022-10-16T04:04:08;4.90;;;2.70;;
7665;SDS011;3875;46.562;4.898;2022-10-16T04:06:34;4.03;;;2.60;;
7665;SDS011;3875;46.562;4.898;2022-10-16T04:09:00;3.53;;;2.63;;
7665;SDS011;3875;46.562;4.898;2022-10-16T04:11:25;4.97;;;2.53;;
7665;SDS011;3875;46.562;4.898;2022-10-16T04:13:51;4.07;;;3.07;;
7665;SDS011;3875;46.562;4.898;2022-10-16T04:16:17;6.37;;;2.73;;
7665;SDS011;3875;46.562;4.898;2022-10-16T04:18:42;3.40;;;2.43;;
7665;SDS011;3875;46.562;4.898;2022-10-16T04:21:08;2.43;;;2.23;;
7665;SDS011;3875;46.562;4.898;2022-10-16T04:23:34;4.87;;;2.33;;
7665;SDS011;3875;46.562;4.898;2022-10-16T04:26:00;2.53;;;2.33;;
7665;SDS011;3875;46.562;4.898;2022-10-16T04:28:26;3.40;;;2.60;;
7665;SDS011;3875;46.562;4.898;2022-10-16T04:30:52;2.33;;;2.13;;
7665;SDS011;3875;46.562;4.898;2022-10-16T04:33:18;4.83;;;2.37;;
7665;SDS011;3875;46.562;4.898;2022-10-16T04:35:43;2.93;;;2.50;;
7665;SDS011;3875;46.562;4.898;2022-10-16T04:38:09;5.97;;;2.60;;
7665;SDS011;3875;46.562;4.898;2022-10-16T04:40:34;4.53;;;2.57;;
7665;SDS011;3875;46.562;4.898;2022-10-16T04:43:02;4.20;;;2.77;;
7665;SDS011;3875;46.562;4.898;2022-10-16T04:45:28;4.40;;;2.60;;
7665;SDS011;3875;46.562;4.898;2022-10-16T04:47:58;5.60;;;2.60;;
7665;SDS011;3875;46.562;4.898;2022-10-16T04:50:24;6.00;;;2.77;;
7665;SDS011;3875;46.562;4.898;2022-10-16T04:52:50;4.97;;;2.87;;
7665;SDS011;3875;46.562;4.898;2022-10-16T04:55:16;4.17;;;2.37;;
7665;SDS011;3875;46.562;4.898;2022-10-16T04:57:41;2.20;;;2.10;;
7665;SDS011;3875;46.562;4.898;2022-10-16T05:00:07;6.23;;;2.73;;
7665;SDS011;3875;46.562;4.898;2022-10-16T05:02:33;3.37;;;2.53;;
7665;SDS011;3875;46.562;4.898;2022-10-16T05:04:59;2.87;;;2.33;;
7665;SDS011;3875;46.562;4.898;2022-10-16T05:07:25;3.20;;;2.60;;
7665;SDS011;3875;46.562;4.898;2022-10-16T05:09:50;7.07;;;2.53;;
7665;SDS011;3875;46.562;4.898;2022-10-16T05:12:16;4.73;;;2.80;;
7665;SDS011;3875;46.562;4.898;2022-10-16T05:14:42;5.50;;;2.40;;
7665;SDS011;3875;46.562;4.898;2022-10-16T05:17:08;2.80;;;2.40;;
7665;SDS011;3875;46.562;4.898;2022-10-16T05:19:34;4.80;;;2.67;;
7665;SDS011;3875;46.562;4.898;2022-10-16T05:21:59;4.83;;;2.67;;
7665;SDS011;3875;46.562;4.898;2022-10-16T05:24:25;4.07;;;2.47;;
7665;SDS011;3875;46.562;4.898;2022-10-16T05:26:51;4.77;;;2.63;;
7665;SDS011;3875;46.562;4.898;2022-10-16T05:29:17;3.57;;;2.50;;
7665;SDS011;3875;46.562;4.898;2022-10-16T05:31:43;4.20;;;2.90;;
7665;SDS011;3875;46.562;4.898;2022-10-16T05:34:09;6.13;;;2.77;;
7665;SDS011;3875;46.562;4.898;2022-10-16T05:36:34;5.90;;;2.73;;
7665;SDS011;3875;46.562;4.898;2022-10-16T05:39:00;5.57;;;2.90;;
7665;SDS011;3875;46.562;4.898;2022-10-16T05:41:26;4.00;;;2.73;;
7665;SDS011;3875;46.562;4.898;2022-10-16T05:43:52;4.20;;;2.70;;
7665;SDS011;3875;46.562;4.898;2022-10-16T05:46:18;5.57;;;3.40;;
7665;SDS011;3875;46.562;4.898;2022-10-16T05:48:44;6.57;;;2.80;;
7665;SDS011;3875;46.562;4.898;2022-10-16T05:51:11;4.40;;;2.80;;
7665;SDS011;3875;46.562;4.898;2022-10-16T05:53:38;4.03;;;2.60;;
7665;SDS011;3875;46.562;4.898;2022-10-16T05:56:05;4.73;;;3.17;;
7665;SDS011;3875;46.562;4.898;2022-10-16T05:58:32;5.00;;;2.93;;
7665;SDS011;3875;46.562;4.898;2022-10-16T06:01:01;5.03;;;2.93;;
7665;SDS011;3875;46.562;4.898;2022-10-16T06:03:29;6.33;;;3.13;;
7665;SDS011;3875;46.562;4.898;2022-10-16T06:05:55;4.47;;;3.07;;
7665;SDS011;3875;46.562;4.898;2022-10-16T06:08:21;4.03;;;3.07;;
7665;SDS011;3875;46.562;4.898;2022-10-16T06:10:48;5.10;;;3.20;;
7665;SDS011;3875;46.562;4.898;2022-10-16T06:13:24;4.53;;;2.90;;
7665;SDS011;3875;46.562;4.898;2022-10-16T06:15:50;3.30;;;3.00;;
7665;SDS011;3875;46.562;4.898;2022-10-16T06:18:16;4.27;;;3.00;;
7665;SDS011;3875;46.562;4.898;2022-10-16T06:20:41;5.53;;;3.33;;
7665;SDS011;3875;46.562;4.898;2022-10-16T06:23:07;7.03;;;3.00;;
7665;SDS011;3875;46.562;4.898;2022-10-16T06:25:33;4.13;;;3.20;;
7665;SDS011;3875;46.562;4.898;2022-10-16T06:27:58;3.47;;;2.73;;
7665;SDS011;3875;46.562;4.898;2022-10-16T06:30:24;5.03;;;2.97;;
7665;SDS011;3875;46.562;4.898;2022-10-16T06:32:50;4.80;;;2.97;;
7665;SDS011;3875;46.562;4.898;2022-10-16T06:35:15;3.63;;;3.13;;
7665;SDS011;3875;46.562;4.898;2022-10-16T06:37:41;4.47;;;3.30;;
7665;SDS011;3875;46.562;4.898;2022-10-16T06:40:07;8.60;;;3.60;;
7665;SDS011;3875;46.562;4.898;2022-10-16T06:42:32;8.93;;;3.47;;
7665;SDS011;3875;46.562;4.898;2022-10-16T06:44:58;4.60;;;3.27;;
7665;SDS011;3875;46.562;4.898;2022-10-16T06:47:24;5.00;;;3.60;;
7665;SDS011;3875;46.562;4.898;2022-10-16T06:49:50;4.17;;;3.03;;
7665;SDS011;3875;46.562;4.898;2022-10-16T06:52:15;3.70;;;3.23;;
7665;SDS011;3875;46.562;4.898;2022-10-16T06:54:41;7.17;;;3.63;;
7665;SDS011;3875;46.562;4.898;2022-10-16T06:57:06;10.77;;;3.90;;
7665;SDS011;3875;46.562;4.898;2022-10-16T06:59:32;4.77;;;3.33;;
7665;SDS011;3875;46.562;4.898;2022-10-16T07:01:58;3.93;;;3.03;;
7665;SDS011;3875;46.562;4.898;2022-10-16T07:04:23;4.93;;;3.37;;
7665;SDS011;3875;46.562;4.898;2022-10-16T07:06:49;4.80;;;2.87;;
7665;SDS011;3875;46.562;4.898;2022-10-16T07:09:16;5.37;;;3.10;;
7665;SDS011;3875;46.562;4.898;2022-10-16T07:11:42;5.23;;;3.03;;
7665;SDS011;3875;46.562;4.898;2022-10-16T07:14:15;5.23;;;3.20;;
7665;SDS011;3875;46.562;4.898;2022-10-16T07:16:42;6.67;;;3.33;;
7665;SDS011;3875;46.562;4.898;2022-10-16T07:19:08;3.77;;;3.40;;
7665;SDS011;3875;46.562;4.898;2022-10-16T07:21:34;7.27;;;3.63;;
7665;SDS011;3875;46.562;4.898;2022-10-16T07:24:03;5.83;;;3.50;;
7665;SDS011;3875;46.562;4.898;2022-10-16T07:26:32;6.23;;;3.83;;
7665;SDS011;3875;46.562;4.898;2022-10-16T07:28:59;6.23;;;3.60;;
7665;SDS011;3875;46.562;4.898;2022-10-16T07:31:26;3.77;;;3.30;;
7665;SDS011;3875;46.562;4.898;2022-10-16T07:33:52;3.90;;;3.20;;
7665;SDS011;3875;46.562;4.898;2022-10-16T07:36:19;6.77;;;3.60;;
7665;SDS011;3875;46.562;4.898;2022-10-16T07:38:45;5.33;;;3.90;;
7665;SDS011;3875;46.562;4.898;2022-10-16T07:41:13;5.93;;;3.90;;
7665;SDS011;3875;46.562;4.898;2022-10-16T07:43:40;5.83;;;3.87;;
7665;SDS011;3875;46.562;4.898;2022-10-16T07:46:10;7.90;;;3.80;;
7665;SDS011;3875;46.562;4.898;2022-10-16T07:48:35;10.23;;;3.57;;
7665;SDS011;3875;46.562;4.898;2022-10-16T07:51:02;4.30;;;3.63;;
7665;SDS011;3875;46.562;4.898;2022-10-16T07:53:29;5.93;;;3.80;;
7665;SDS011;3875;46.562;4.898;2022-10-16T07:56:02;5.43;;;3.67;;
7665;SDS011;3875;46.562;4.898;2022-10-16T07:58:31;6.67;;;3.97;;
7665;SDS011;3875;46.562;4.898;2022-10-16T08:00:57;7.20;;;3.67;;
7665;SDS011;3875;46.562;4.898;2022-10-16T08:03:24;6.70;;;3.67;;
7665;SDS011;3875;46.562;4.898;2022-10-16T08:05:50;6.43;;;3.90;;
7665;SDS011;3875;46.562;4.898;2022-10-16T08:08:17;5.13;;;3.93;;
7665;SDS011;3875;46.562;4.898;2022-10-16T08:10:43;4.97;;;3.67;;
7665;SDS011;3875;46.562;4.898;2022-10-16T08:13:09;5.17;;;4.27;;
7665;SDS011;3875;46.562;4.898;2022-10-16T08:15:35;7.23;;;3.97;;
7665;SDS011;3875;46.562;4.898;2022-10-16T08:18:02;6.30;;;4.07;;
7665;SDS011;3875;46.562;4.898;2022-10-16T08:20:29;10.23;;;4.40;;
7665;SDS011;3875;46.562;4.898;2022-10-16T08:22:55;6.70;;;3.83;;
7665;SDS011;3875;46.562;4.898;2022-10-16T08:25:22;9.87;;;3.90;;
7665;SDS011;3875;46.562;4.898;2022-10-16T08:27:48;8.63;;;3.87;;
7665;SDS011;3875;46.562;4.898;2022-10-16T08:30:14;10.30;;;4.20;;
7665;SDS011;3875;46.562;4.898;2022-10-16T08:32:41;5.23;;;4.23;;
7665;SDS011;3875;46.562;4.898;2022-10-16T08:35:08;4.87;;;4.27;;
7665;SDS011;3875;46.562;4.898;2022-10-16T08:37:34;6.50;;;4.80;;
7665;SDS011;3875;46.562;4.898;2022-10-16T08:40:00;5.87;;;3.93;;
7665;SDS011;3875;46.562;4.898;2022-10-16T08:47:54;5.90;;;3.63;;
7665;SDS011;3875;46.562;4.898;2022-10-16T08:50:39;5.90;;;3.70;;
7665;SDS011;3875;46.562;4.898;2022-10-16T08:53:06;4.27;;;3.83;;
7665;SDS011;3875;46.562;4.898;2022-10-16T08:55:42;6.27;;;3.83;;
7665;SDS011;3875;46.562;4.898;2022-10-16T08:58:22;4.80;;;3.90;;
7665;SDS011;3875;46.562;4.898;2022-10-16T09:00:56;4.07;;;3.53;;
7665;SDS011;3875;46.562;4.898;2022-10-16T09:03:28;5.27;;;3.53;;
7665;SDS011;3875;46.562;4.898;2022-10-16T09:11:39;4.23;;;3.50;;
7665;SDS011;3875;46.562;4.898;2022-10-16T09:25:30;5.27;;;3.53;;
7665;SDS011;3875;46.562;4.898;2022-10-16T09:27:57;5.20;;;3.73;;
7665;SDS011;3875;46.562;4.898;2022-10-16T09:30:25;8.00;;;3.90;;
7665;SDS011;3875;46.562;4.898;2022-10-16T09:32:54;5.40;;;3.77;;
7665;SDS011;3875;46.562;4.898;2022-10-16T09:35:24;4.60;;;3.63;;
7665;SDS011;3875;46.562;4.898;2022-10-16T09:37:56;4.70;;;3.43;;
7665;SDS011;3875;46.562;4.898;2022-10-16T09:42:54;6.33;;;3.67;;
7665;SDS011;3875;46.562;4.898;2022-10-16T09:45:42;5.17;;;3.37;;
7665;SDS011;3875;46.562;4.898;2022-10-16T09:48:17;5.73;;;3.10;;
7665;SDS011;3875;46.562;4.898;2022-10-16T09:50:55;4.37;;;3.13;;
7665;SDS011;3875;46.562;4.898;2022-10-16T09:53:25;4.60;;;3.13;;
7665;SDS011;3875;46.562;4.898;2022-10-16T09:56:03;3.30;;;2.90;;
7665;SDS011;3875;46.562;4.898;2022-10-16T09:58:31;5.43;;;3.43;;
7665;SDS011;3875;46.562;4.898;2022-10-16T10:00:58;8.83;;;3.50;;
7665;SDS011;3875;46.562;4.898;2022-10-16T10:03:37;3.43;;;2.80;;
7665;SDS011;3875;46.562;4.898;2022-10-16T10:06:26;4.57;;;3.20;;
7665;SDS011;3875;46.562;4.898;2022-10-16T10:08:54;4.50;;;3.17;;
7665;SDS011;3875;46.562;4.898;2022-10-16T10:11:37;4.80;;;2.80;;
7665;SDS011;3875;46.562;4.898;2022-10-16T10:14:04;4.20;;;3.13;;
7665;SDS011;3875;46.562;4.898;2022-10-16T10:16:45;5.97;;;3.53;;
7665;SDS011;3875;46.562;4.898;2022-10-16T10:19:15;3.93;;;2.77;;
7665;SDS011;3875;46.562;4.898;2022-10-16T10:21:45;6.47;;;3.40;;
7665;SDS011;3875;46.562;4.898;2022-10-16T10:24:13;3.37;;;2.70;;
7665;SDS011;3875;46.562;4.898;2022-10-16T10:26:51;4.30;;;2.53;;
7665;SDS011;3875;46.562;4.898;2022-10-16T10:29:31;7.70;;;3.10;;
7665;SDS011;3875;46.562;4.898;2022-10-16T10:47:46;4.00;;;2.80;;
7665;SDS011;3875;46.562;4.898;2022-10-16T10:50:33;4.83;;;3.10;;
7665;SDS011;3875;46.562;4.898;2022-10-16T10:58:58;4.70;;;3.23;;
7665;SDS011;3875;46.562;4.898;2022-10-16T11:04:21;5.67;;;3.10;;
7665;SDS011;3875;46.562;4.898;2022-10-16T11:07:05;5.07;;;3.03;;
7665;SDS011;3875;46.562;4.898;2022-10-16T11:09:47;4.50;;;3.00;;
7665;SDS011;3875;46.562;4.898;2022-10-16T11:12:17;5.20;;;2.70;;
7665;SDS011;3875;46.562;4.898;2022-10-16T11:15:02;5.13;;;3.13;;
7665;SDS011;3875;46.562;4.898;2022-10-16T11:17:59;5.47;;;3.28;;
7665;SDS011;3875;46.562;4.898;2022-10-16T11:20:41;3.30;;;3.00;;
7665;SDS011;3875;46.562;4.898;2022-10-16T11:23:33;5.20;;;2.77;;
7665;SDS011;3875;46.562;4.898;2022-10-16T11:26:06;5.20;;;3.10;;
7665;SDS011;3875;46.562;4.898;2022-10-16T11:28:45;7.10;;;3.20;;
7665;SDS011;3875;46.562;4.898;2022-10-16T11:31:22;3.23;;;2.90;;
7665;SDS011;3875;46.562;4.898;2022-10-16T11:37:05;3.70;;;2.73;;
7665;SDS011;3875;46.562;4.898;2022-10-16T11:39:36;3.87;;;2.50;;
7665;SDS011;3875;46.562;4.898;2022-10-16T11:47:24;3.00;;;2.70;;
7665;SDS011;3875;46.562;4.898;2022-10-16T11:53:01;4.00;;;2.87;;
7665;SDS011;3875;46.562;4.898;2022-10-16T11:55:36;8.53;;;2.97;;
7665;SDS011;3875;46.562;4.898;2022-10-16T11:58:05;5.43;;;2.97;;
7665;SDS011;3875;46.562;4.898;2022-10-16T12:08:48;3.37;;;2.67;;
7665;SDS011;3875;46.562;4.898;2022-10-16T12:11:30;5.23;;;2.90;;
7665;SDS011;3875;46.562;4.898;2022-10-16T12:14:06;2.37;;;2.17;;
7665;SDS011;3875;46.562;4.898;2022-10-16T12:16:59;2.93;;;2.57;;
7665;SDS011;3875;46.562;4.898;2022-10-16T12:19:26;5.10;;;3.00;;
7665;SDS011;3875;46.562;4.898;2022-10-16T12:21:57;3.83;;;2.73;;
7665;SDS011;3875;46.562;4.898;2022-10-16T12:27:06;2.80;;;2.47;;
7665;SDS011;3875;46.562;4.898;2022-10-16T12:29:48;3.33;;;2.50;;
7665;SDS011;3875;46.562;4.898;2022-10-16T12:34:59;2.70;;;2.50;;
7665;SDS011;3875;46.562;4.898;2022-10-16T12:37:28;5.70;;;2.83;;
7665;SDS011;3875;46.562;4.898;2022-10-16T12:39:59;2.50;;;2.30;;
7665;SDS011;3875;46.562;4.898;2022-10-16T12:42:36;3.03;;;2.70;;
7665;SDS011;3875;46.562;4.898;2022-10-16T12:45:13;3.83;;;2.57;;
7665;SDS011;3875;46.562;4.898;2022-10-16T12:47:56;3.03;;;2.73;;
7665;SDS011;3875;46.562;4.898;2022-10-16T12:50:25;5.23;;;2.33;;
7665;SDS011;3875;46.562;4.898;2022-10-16T12:53:01;4.33;;;2.43;;
7665;SDS011;3875;46.562;4.898;2022-10-16T12:55:32;6.55;;;2.53;;
7665;SDS011;3875;46.562;4.898;2022-10-16T13:00:33;3.70;;;2.73;;
7665;SDS011;3875;46.562;4.898;2022-10-16T13:06:25;2.73;;;2.40;;
7665;SDS011;3875;46.562;4.898;2022-10-16T13:09:05;4.47;;;2.70;;
7665;SDS011;3875;46.562;4.898;2022-10-16T13:23:15;6.73;;;2.40;;
7665;SDS011;3875;46.562;4.898;2022-10-16T13:25:57;8.23;;;2.50;;
7665;SDS011;3875;46.562;4.898;2022-10-16T13:28:30;3.00;;;2.47;;
7665;SDS011;3875;46.562;4.898;2022-10-16T13:30:58;4.03;;;2.47;;
7665;SDS011;3875;46.562;4.898;2022-10-16T13:35:59;3.07;;;2.40;;
7665;SDS011;3875;46.562;4.898;2022-10-16T13:38:26;3.60;;;2.50;;
7665;SDS011;3875;46.562;4.898;2022-10-16T13:41:00;3.13;;;2.30;;
7665;SDS011;3875;46.562;4.898;2022-10-16T13:46:13;3.27;;;2.57;;
7665;SDS011;3875;46.562;4.898;2022-10-16T13:48:42;4.73;;;2.70;;
7665;SDS011;3875;46.562;4.898;2022-10-16T13:53:38;3.37;;;2.33;;
7665;SDS011;3875;46.562;4.898;2022-10-16T13:56:06;5.27;;;2.63;;
7665;SDS011;3875;46.562;4.898;2022-10-16T13:58:35;7.30;;;2.57;;
7665;SDS011;3875;46.562;4.898;2022-10-16T14:01:02;4.33;;;2.27;;
7665;SDS011;3875;46.562;4.898;2022-10-16T14:03:32;3.47;;;2.27;;
7665;SDS011;3875;46.562;4.898;2022-10-16T14:06:01;5.30;;;2.50;;
7665;SDS011;3875;46.562;4.898;2022-10-16T14:08:29;3.17;;;2.33;;
7665;SDS011;3875;46.562;4.898;2022-10-16T14:10:56;4.77;;;2.70;;
7665;SDS011;3875;46.562;4.898;2022-10-16T14:13:44;3.00;;;2.70;;
7665;SDS011;3875;46.562;4.898;2022-10-16T14:16:10;2.50;;;2.27;;
7665;SDS011;3875;46.562;4.898;2022-10-16T14:19:03;3.37;;;2.33;;
7665;SDS011;3875;46.562;4.898;2022-10-16T14:21:31;5.18;;;2.75;;
7665;SDS011;3875;46.562;4.898;2022-10-16T14:23:58;2.47;;;2.20;;
7665;SDS011;3875;46.562;4.898;2022-10-16T14:26:27;7.10;;;2.87;;
7665;SDS011;3875;46.562;4.898;2022-10-16T14:29:08;5.00;;;2.83;;
7665;SDS011;3875;46.562;4.898;2022-10-16T14:31:37;3.43;;;2.70;;
7665;SDS011;3875;46.562;4.898;2022-10-16T14:34:05;5.33;;;2.40;;
7665;SDS011;3875;46.562;4.898;2022-10-16T14:36:53;4.07;;;2.10;;
7665;SDS011;3875;46.562;4.898;2022-10-16T14:39:20;3.00;;;2.50;;
7665;SDS011;3875;46.562;4.898;2022-10-16T14:41:48;3.60;;;2.73;;
7665;SDS011;3875;46.562;4.898;2022-10-16T14:44:26;7.60;;;2.70;;
7665;SDS011;3875;46.562;4.898;2022-10-16T14:47:06;5.63;;;2.57;;
7665;SDS011;3875;46.562;4.898;2022-10-16T14:49:34;5.03;;;2.60;;
7665;SDS011;3875;46.562;4.898;2022-10-16T14:51:59;3.73;;;2.37;;
7665;SDS011;3875;46.562;4.898;2022-10-16T14:54:26;2.80;;;2.53;;
7665;SDS011;3875;46.562;4.898;2022-10-16T14:56:53;4.33;;;2.73;;
7665;SDS011;3875;46.562;4.898;2022-10-16T15:02:02;4.50;;;2.47;;
7665;SDS011;3875;46.562;4.898;2022-10-16T15:04:47;4.00;;;2.90;;
7665;SDS011;3875;46.562;4.898;2022-10-16T15:07:13;2.50;;;2.30;;
7665;SDS011;3875;46.562;4.898;2022-10-16T15:09:39;5.40;;;2.90;;
7665;SDS011;3875;46.562;4.898;2022-10-16T15:12:05;4.60;;;3.03;;
7665;SDS011;3875;46.562;4.898;2022-10-16T15:14:30;5.70;;;2.33;;
7665;SDS011;3875;46.562;4.898;2022-10-16T15:16:56;3.57;;;2.73;;
7665;SDS011;3875;46.562;4.898;2022-10-16T15:19:22;4.13;;;2.50;;
7665;SDS011;3875;46.562;4.898;2022-10-16T15:21:48;2.73;;;2.53;;
7665;SDS011;3875;46.562;4.898;2022-10-16T15:24:14;6.07;;;2.73;;
7665;SDS011;3875;46.562;4.898;2022-10-16T15:26:40;6.40;;;2.83;;
7665;SDS011;3875;46.562;4.898;2022-10-16T15:29:06;4.93;;;2.47;;
7665;SDS011;3875;46.562;4.898;2022-10-16T15:31:33;4.20;;;2.80;;
7665;SDS011;3875;46.562;4.898;2022-10-16T15:33:59;5.93;;;3.03;;
7665;SDS011;3875;46.562;4.898;2022-10-16T15:36:30;8.93;;;3.03;;
7665;SDS011;3875;46.562;4.898;2022-10-16T15:39:02;3.60;;;2.80;;
7665;SDS011;3875;46.562;4.898;2022-10-16T15:41:36;3.57;;;2.73;;
7665;SDS011;3875;46.562;4.898;2022-10-16T15:44:02;7.30;;;3.17;;
7665;SDS011;3875;46.562;4.898;2022-10-16T15:46:28;3.53;;;2.47;;
7665;SDS011;3875;46.562;4.898;2022-10-16T15:48:56;3.13;;;2.47;;
7665;SDS011;3875;46.562;4.898;2022-10-16T15:51:23;5.73;;;2.60;;
7665;SDS011;3875;46.562;4.898;2022-10-16T15:53:50;3.97;;;2.97;;
7665;SDS011;3875;46.562;4.898;2022-10-16T15:56:16;5.27;;;2.53;;
7665;SDS011;3875;46.562;4.898;2022-10-16T15:58:42;5.90;;;2.37;;
7665;SDS011;3875;46.562;4.898;2022-10-16T16:01:08;4.57;;;2.40;;
7665;SDS011;3875;46.562;4.898;2022-10-16T16:03:35;3.47;;;2.63;;
7665;SDS011;3875;46.562;4.898;2022-10-16T16:06:05;4.20;;;2.27;;
7665;SDS011;3875;46.562;4.898;2022-10-16T16:08:33;2.23;;;2.03;;
7665;SDS011;3875;46.562;4.898;2022-10-16T16:11:04;7.77;;;2.77;;
7665;SDS011;3875;46.562;4.898;2022-10-16T16:13:35;4.70;;;2.80;;
7665;SDS011;3875;46.562;4.898;2022-10-16T16:16:11;4.63;;;2.73;;
7665;SDS011;3875;46.562;4.898;2022-10-16T16:18:39;3.47;;;2.77;;
7665;SDS011;3875;46.562;4.898;2022-10-16T16:21:05;4.93;;;2.77;;
7665;SDS011;3875;46.562;4.898;2022-10-16T16:23:31;3.23;;;2.40;;
7665;SDS011;3875;46.562;4.898;2022-10-16T16:26:22;2.90;;;2.70;;
7665;SDS011;3875;46.562;4.898;2022-10-16T16:28:53;5.33;;;2.77;;
7665;SDS011;3875;46.562;4.898;2022-10-16T16:31:20;4.97;;;3.10;;
7665;SDS011;3875;46.562;4.898;2022-10-16T16:33:49;3.80;;;2.50;;
7665;SDS011;3875;46.562;4.898;2022-10-16T16:36:16;5.10;;;2.93;;
7665;SDS011;3875;46.562;4.898;2022-10-16T16:38:43;3.93;;;2.57;;
7665;SDS011;3875;46.562;4.898;2022-10-16T16:41:13;3.80;;;2.73;;
7665;SDS011;3875;46.562;4.898;2022-10-16T16:43:40;2.80;;;2.50;;
7665;SDS011;3875;46.562;4.898;2022-10-16T16:46:06;5.67;;;2.97;;
7665;SDS011;3875;46.562;4.898;2022-10-16T16:48:31;5.03;;;2.77;;
7665;SDS011;3875;46.562;4.898;2022-10-16T16:51:08;5.50;;;2.70;;
7665;SDS011;3875;46.562;4.898;2022-10-16T16:53:40;3.17;;;2.83;;
7665;SDS011;3875;46.562;4.898;2022-10-16T16:56:06;5.23;;;2.97;;
7665;SDS011;3875;46.562;4.898;2022-10-16T16:58:32;4.33;;;2.53;;
7665;SDS011;3875;46.562;4.898;2022-10-16T17:00:58;3.40;;;2.90;;
7665;SDS011;3875;46.562;4.898;2022-10-16T17:03:30;4.37;;;2.80;;
7665;SDS011;3875;46.562;4.898;2022-10-16T17:06:05;3.10;;;2.80;;
7665;SDS011;3875;46.562;4.898;2022-10-16T17:08:35;5.07;;;3.13;;
7665;SDS011;3875;46.562;4.898;2022-10-16T17:11:02;4.67;;;3.00;;
7665;SDS011;3875;46.562;4.898;2022-10-16T17:13:29;8.00;;;2.53;;
7665;SDS011;3875;46.562;4.898;2022-10-16T17:15:56;3.73;;;2.90;;
7665;SDS011;3875;46.562;4.898;2022-10-16T17:18:23;3.97;;;2.83;;
7665;SDS011;3875;46.562;4.898;2022-10-16T17:20:49;8.47;;;3.27;;
7665;SDS011;3875;46.562;4.898;2022-10-16T17:23:17;4.67;;;3.40;;